• Join FlightAware (Why Join?)
  • Login
  • US Flag 
12:32AM EDT


 

Airport Tracker/Info


-or-


 

Live Flight TrackerFlight Track Log ✈ AVA16 ✈ 07-Sep-2013 ✈ SKRG / MDE - LEMD / MAD

Flight Track Log - Related Links

Times and Time Zones

All times are in EDT time to prevent confusion due to time zone crossing. See the AVA16 flight status page for this flight to view local times or setup timezone preferences in your user account.

Time Position Orientation Groundspeed Altitude Reporting Facility
EDT Latitude Longitude Course Direction KTS MPH feet Rate Location/Type
11:56PM 6.9250 -74.0710 54° Northeast 481 554 28,700  Level FlightAware
11:56PM 6.9900 -73.9820 54° Northeast 486 559 29,100 1,200 Climbing FlightAware
11:57PM 7.0430 -73.9100 53° Northeast 483 556 30,400 1,800 Climbing FlightAware
11:58PM 7.0890 -73.8480 53° Northeast 479 551 31,200 1,020 Climbing FlightAware
11:58PM 7.1350 -73.7850 54° Northeast 481 554 31,600 960 Climbing FlightAware
11:59PM 7.1880 -73.7120 54° Northeast 479 551 32,400 1,320 Climbing FlightAware
11:59PM 7.2320 -73.6530 53° Northeast 471 542 33,300 1,440 Climbing FlightAware
12:00AM 7.2740 -73.5950 54° Northeast 464 534 34,100 1,260 Climbing FlightAware
12:01AM 7.3220 -73.5300 53° Northeast 459 528 34,800 1,020 Climbing FlightAware
12:01AM 7.3670 -73.4680 54° Northeast 459 528 35,300 840 Climbing FlightAware
12:02AM 7.4110 -73.4090 53° Northeast 459 528 35,800 900 Climbing FlightAware
12:02AM 7.4550 -73.3490 54° Northeast 455 524 36,400 1,020 Climbing FlightAware
12:03AM 7.4990 -73.2890 54° Northeast 451 519 37,000 480 Climbing FlightAware
12:04AM 7.5420 -73.2300 54° Northeast 452 520 37,000  Level FlightAware
12:04AM 7.5860 -73.1690 54° Northeast 453 521 37,000  Level FlightAware
12:05AM 7.6270 -73.1130 54° Northeast 452 520 37,000  Level FlightAware
12:05AM 7.6670 -73.0590 53° Northeast 452 520 37,000  Level FlightAware
12:06AM 7.7080 -73.0010 54° Northeast 452 520 37,000  Level FlightAware
12:06AM 7.7460 -72.9490 54° Northeast 452 520 37,000  Level FlightAware
12:07AM 7.7840 -72.8970 54° Northeast 452 520 37,000  Level FlightAware
12:08AM 7.8210 -72.8440 55° Northeast 452 520 37,000  Level FlightAware
12:08AM 7.8880 -72.7560 52° Northeast 449 517 37,000  Level FlightAware
12:09AM 7.9320 -72.6940 54° Northeast 449 517 37,000  Level FlightAware
12:10AM 7.9810 -72.6160 58° Northeast 450 518 37,000  Level FlightAware
12:10AM 8.0100 -72.5630 61° Northeast 450 518 37,000  Level FlightAware
12:11AM 8.0440 -72.5000 61° Northeast 450 518 37,000  Level FlightAware
12:11AM 8.0750 -72.4440 61° Northeast 450 518 37,000  Level FlightAware
12:12AM 8.1060 -72.3880 61° Northeast 450 518 37,000  Level FlightAware
12:13AM 8.1370 -72.3310 61° Northeast 450 518 37,000  Level FlightAware
12:13AM 8.1680 -72.2750 61° Northeast 450 518 37,000  Level FlightAware
12:14AM 8.1990 -72.2190 61° Northeast 450 518 37,000  Level FlightAware
12:14AM 8.2290 -72.1620 62° Northeast 450 518 37,000  Level FlightAware
12:15AM 8.2610 -72.1050 60° Northeast 450 518 37,000  Level FlightAware
12:16AM 8.2920 -72.0480 61° Northeast 450 518 37,000  Level FlightAware
12:16AM 8.3230 -71.9920 61° Northeast 450 518 37,000  Level FlightAware
12:17AM 8.3540 -71.9360 61° Northeast 450 518 37,000  Level FlightAware
12:17AM 8.3850 -71.8790 61° Northeast 450 518 37,000  Level FlightAware
12:18AM 8.4160 -71.8230 61° Northeast 450 518 37,000  Level FlightAware
12:19AM 8.4460 -71.7670 62° Northeast 450 518 37,000  Level FlightAware
12:19AM 8.4780 -71.7090 61° Northeast 450 518 37,000  Level FlightAware
12:22AM 8.6490 -71.4518 56° Northeast  Level FlightAware Approximate
12:23AM 8.7233 -71.3399 56° Northeast  Level FlightAware Approximate
12:23AM 8.8310 -71.1000 56° Northeast 458 527 37,000  Level FlightAware
12:24AM 8.8790 -71.0140 61° Northeast 456 525 37,000  Level FlightAware
12:25AM 8.9130 -70.9530 61° Northeast 455 524 37,000  Level FlightAware
12:25AM 8.9550 -70.8780 60° Northeast 449 517 37,000  Level FlightAware
12:26AM 8.9890 -70.8150 61° Northeast 449 517 37,000  Level FlightAware
12:27AM 9.0200 -70.7590 61° Northeast 449 517 37,000  Level FlightAware
12:27AM 9.0730 -70.6660 60° Northeast 37,000  Level FlightAware
12:28AM 9.1080 -70.6020 61° Northeast 445 512 37,000  Level FlightAware
12:28AM 9.1440 -70.5390 60° Northeast 445 512 37,000  Level FlightAware
12:29AM 9.1850 -70.4650 61° Northeast 444 511 37,000  Level FlightAware
12:30AM 9.2180 -70.4050 61° Northeast 444 511 37,000  Level FlightAware
12:30AM 9.2550 -70.3390 60° Northeast 444 511 37,000  Level FlightAware
12:31AM 9.2850 -70.2830 62° Northeast 444 511 37,000  Level FlightAware
12:32AM 9.3360 -70.1920 60° Northeast 444 511 37,000  Level FlightAware
12:32AM 9.3740 -70.1240 60° Northeast 445 512 37,000  Level FlightAware
12:33AM 9.4080 -70.0630 61° Northeast 446 513 37,000  Level FlightAware
12:33AM 9.4410 -70.0030 61° Northeast 446 513 37,000  Level FlightAware
12:34AM 9.4790 -69.9340 61° Northeast 448 516 37,000  Level FlightAware
12:35AM 9.5240 -69.8530 61° Northeast 447 514 37,000  Level FlightAware
12:35AM 9.5670 -69.7740 61° Northeast 447 514 37,000  Level FlightAware
12:36AM 9.5940 -69.7260 60° Northeast 449 517 37,000  Level FlightAware
12:37AM 9.6530 -69.6180 61° Northeast 449 517 37,000  Level FlightAware
12:37AM 9.6890 -69.5530 61° Northeast 450 518 37,000  Level FlightAware
12:38AM 9.7320 -69.4760 60° Northeast 450 518 37,000  Level FlightAware
12:39AM 9.7670 -69.4110 61° Northeast 450 518 37,000  Level FlightAware
12:39AM 9.8030 -69.3470 60° Northeast 447 514 37,000  Level FlightAware
12:40AM 9.8360 -69.2850 62° Northeast 447 514 37,000  Level FlightAware
12:40AM 9.8740 -69.2170 60° Northeast 446 513 37,000  Level FlightAware
12:41AM 9.9090 -69.1530 61° Northeast 446 513 37,000  Level FlightAware
12:41AM 9.9450 -69.0880 61° Northeast 447 514 37,000  Level FlightAware
12:42AM 9.9810 -69.0220 61° Northeast 447 514 37,000  Level FlightAware
12:43AM 10.0120 -68.9650 61° Northeast 446 513 37,000  Level FlightAware
12:43AM 10.0530 -68.8900 61° Northeast 447 514 37,000  Level FlightAware
12:44AM 10.0870 -68.8280 61° Northeast 446 513 37,000  Level FlightAware
12:44AM 10.1190 -68.7710 60° Northeast 446 513 37,000  Level FlightAware
12:45AM 10.1590 -68.6970 61° Northeast 447 514 37,000  Level FlightAware
12:46AM 10.1940 -68.6320 61° Northeast 446 513 37,000  Level FlightAware
12:46AM 10.2300 -68.5680 60° Northeast 446 513 37,000  Level FlightAware
12:47AM 10.2600 -68.5130 61° Northeast 445 512 37,000  Level FlightAware
12:47AM 10.3000 -68.4390 61° Northeast 444 511 37,000  Level FlightAware
12:48AM 10.3350 -68.3740 61° Northeast 444 511 37,000  Level FlightAware
12:49AM 10.3700 -68.3110 61° Northeast 444 511 37,000  Level FlightAware
12:49AM 10.4010 -68.2530 61° Northeast 444 511 37,000  Level FlightAware
12:50AM 10.4410 -68.1800 61° Northeast 444 511 37,000  Level FlightAware
12:50AM 10.4720 -68.1230 61° Northeast 444 511 37,000  Level FlightAware
12:51AM 10.5060 -68.0610 61° Northeast 446 513 37,000  Level FlightAware
12:51AM 10.5420 -67.9930 62° Northeast 447 514 37,000  Level FlightAware
12:52AM 10.5820 -67.9210 61° Northeast 449 517 37,000  Level FlightAware
12:53AM 10.6130 -67.8630 61° Northeast 449 517 37,000  Level FlightAware
12:53AM 10.6470 -67.8000 61° Northeast 449 517 37,000  Level FlightAware
12:54AM 10.6840 -67.7330 61° Northeast 448 516 37,000  Level FlightAware
12:54AM 10.7230 -67.6610 61° Northeast 447 514 37,000  Level FlightAware
12:55AM 10.7540 -67.6030 61° Northeast 447 514 37,000  Level FlightAware
12:56AM 10.7940 -67.5300 61° Northeast 447 514 37,000  Level FlightAware
12:56AM 10.8250 -67.4730 61° Northeast 450 518 37,000  Level FlightAware
12:57AM 10.8600 -67.4070 62° Northeast 449 517 37,000  Level FlightAware
12:57AM 10.8960 -67.3410 61° Northeast 448 516 37,000  Level FlightAware
12:58AM 10.9360 -67.2670 61° Northeast 448 516 37,000  Level FlightAware
12:58AM 10.9660 -67.2100 62° Northeast 450 518 37,000  Level FlightAware
12:59AM 11.0030 -67.1420 61° Northeast 450 518 37,000  Level FlightAware
01:00AM 11.0370 -67.0790 61° Northeast 450 518 37,000  Level FlightAware
01:00AM 11.0730 -67.0120 61° Northeast 451 519 37,000  Level FlightAware
01:01AM 11.1080 -66.9480 61° Northeast 452 520 37,000  Level FlightAware
01:01AM 11.1440 -66.8800 62° Northeast 453 521 37,000  Level FlightAware
01:02AM 11.1790 -66.8150 61° Northeast 452 520 37,000  Level FlightAware
01:02AM 11.2140 -66.7510 61° Northeast 451 519 37,000  Level FlightAware
01:03AM 11.2500 -66.6820 62° Northeast 450 518 37,000  Level FlightAware
01:04AM 11.2880 -66.6110 61° Northeast 451 519 37,000  Level FlightAware
01:04AM 11.3180 -66.5540 62° Northeast 451 519 37,000  Level FlightAware
01:05AM 11.3870 -66.4270 61° Northeast 453 521 37,000  Level FlightAware
01:06AM 11.4160 -66.3720 62° Northeast 452 520 37,000  Level FlightAware
01:06AM 11.4580 -66.2950 61° Northeast 451 519 37,000  Level FlightAware
01:07AM 11.4920 -66.2300 62° Northeast 450 518 37,000  Level FlightAware
01:08AM 11.5280 -66.1620 62° Northeast 450 518 37,000  Level FlightAware
01:08AM 11.5790 -66.0680 61° Northeast 450 518 37,000  Level FlightAware
01:09AM 11.6100 -66.0100 61° Northeast 451 519 37,000  Level FlightAware
01:10AM 11.6450 -65.9440 62° Northeast 451 519 37,000  Level FlightAware
01:10AM 11.6800 -65.8790 61° Northeast 451 519 37,000  Level FlightAware
01:11AM 11.7050 -65.8310 62° Northeast 451 519 37,000  Level FlightAware
01:11AM 11.7500 -65.7470 61° Northeast 451 519 37,000  Level FlightAware
01:12AM 11.7850 -65.6810 62° Northeast 450 518 37,000  Level FlightAware
01:12AM 11.8190 -65.6160 62° Northeast 449 517 37,000  Level FlightAware
01:13AM 11.8540 -65.5510 61° Northeast 450 518 37,000  Level FlightAware
01:14AM 11.8910 -65.4810 62° Northeast 451 519 37,000  Level FlightAware
01:14AM 11.9310 -65.4050 62° Northeast 451 519 37,000  Level FlightAware
01:15AM 11.9660 -65.3400 61° Northeast 451 519 37,000  Level FlightAware
01:16AM 12.0000 -65.2750 62° Northeast 451 519 37,000  Level FlightAware
01:16AM 12.0360 -65.2070 62° Northeast 451 519 37,000  Level FlightAware
01:17AM 12.0710 -65.1410 62° Northeast 452 520 37,000  Level FlightAware
01:17AM 12.1050 -65.0760 62° Northeast 451 519 37,000  Level FlightAware
01:18AM 12.1410 -65.0070 62° Northeast 450 518 37,000  Level FlightAware
01:18AM 12.1760 -64.9420 61° Northeast 451 519 37,000  Level FlightAware
01:19AM 12.2060 -64.8840 62° Northeast 452 520 37,000  Level FlightAware
01:20AM 12.2620 -64.7770 62° Northeast 454 522 37,000  Level FlightAware
01:21AM 12.2920 -64.7190 62° Northeast 454 522 37,000  Level FlightAware
01:21AM 12.3390 -64.6320 61° Northeast 456 525 37,000  Level FlightAware
01:22AM 12.3820 -64.5480 62° Northeast 455 524 37,000  Level FlightAware
01:23AM 12.4150 -64.4880 61° Northeast 455 524 37,000  Level FlightAware
01:23AM 12.4470 -64.4300 61° Northeast 455 524 37,000  Level FlightAware
01:24AM 12.4780 -64.3720 61° Northeast 455 524 37,000  Level FlightAware
01:24AM 12.5100 -64.3130 61° Northeast 455 524 37,000  Level FlightAware
01:25AM 12.5410 -64.2550 61° Northeast 455 524 37,000  Level FlightAware
01:26AM 12.5720 -64.1970 61° Northeast 455 524 37,000  Level FlightAware
01:26AM 12.6040 -64.1400 60° Northeast 455 524 37,000  Level FlightAware
01:27AM 12.6650 -64.0090 64° Northeast 451 519 37,000  Level FlightAware
01:27AM 12.6990 -63.9430 62° Northeast 451 519 37,000  Level FlightAware
01:28AM 12.7300 -63.8830 62° Northeast 451 519 37,000  Level FlightAware
01:29AM 12.7600 -63.8260 62° Northeast 451 519 37,000  Level FlightAware
01:29AM 12.7900 -63.7680 62° Northeast 451 519 37,000  Level FlightAware
01:30AM 12.8200 -63.7100 62° Northeast 451 519 37,000  Level FlightAware
01:30AM 12.8500 -63.6520 62° Northeast 451 519 37,000  Level FlightAware
01:31AM 12.8810 -63.5930 62° Northeast 451 519 37,000  Level FlightAware
01:32AM 12.9100 -63.5350 63° Northeast 451 519 37,000  Level FlightAware
01:32AM 12.9400 -63.4770 62° Northeast 451 519 37,000  Level FlightAware
01:33AM 12.9700 -63.4190 62° Northeast 451 519 37,000  Level FlightAware
01:33AM 13.0000 -63.3610 62° Northeast 451 519 37,000  Level FlightAware
01:34AM 13.0310 -63.3020 62° Northeast 451 519 37,000  Level FlightAware
01:35AM 13.0610 -63.2440 62° Northeast 451 519 37,000  Level FlightAware
01:35AM 13.0910 -63.1860 62° Northeast 451 519 37,000  Level FlightAware
01:36AM 13.1210 -63.1280 62° Northeast 451 519 37,000  Level FlightAware
01:36AM 13.1510 -63.0700 62° Northeast 451 519 37,000  Level FlightAware
01:37AM 13.4980 -62.9600 17° North 37,000  Level FlightAware
01:38AM 13.5120 -62.9460 44° Northeast 449 517 37,000  Level FlightAware
01:38AM 13.5650 -62.8890 46° Northeast 449 517 37,000  Level FlightAware
01:39AM 13.6280 -62.8220 46° Northeast 451 519 37,000  Level FlightAware
01:40AM 13.6930 -62.7530 46° Northeast 451 519 37,000  Level FlightAware
01:40AM 13.7300 -62.7130 46° Northeast 451 519 37,000  Level FlightAware
01:41AM 13.8030 -62.6340 46° Northeast 450 518 37,000  Level FlightAware
01:42AM 13.8650 -62.5690 46° Northeast 450 518 37,000  Level FlightAware
01:42AM 13.9230 -62.5060 47° Northeast 449 517 37,000  Level FlightAware
01:43AM 13.9770 -62.4480 46° Northeast 450 518 37,000  Level FlightAware
01:43AM 14.0170 -62.4050 46° Northeast 451 519 37,000  Level FlightAware
01:44AM 14.0730 -62.3450 46° Northeast 450 518 37,000  Level FlightAware
01:45AM 14.1250 -62.2890 46° Northeast 450 518 37,000  Level FlightAware
01:45AM 14.1770 -62.2330 46° Northeast 449 517 37,000  Level FlightAware
01:46AM 14.2410 -62.1650 46° Northeast 449 517 37,000  Level FlightAware
01:46AM 14.2850 -62.1170 47° Northeast 449 517 37,000  Level FlightAware
01:47AM 14.3350 -62.0630 46° Northeast 450 518 37,000  Level FlightAware
01:48AM 14.3870 -62.0080 46° Northeast 451 519 37,000  Level FlightAware
01:48AM 14.4410 -61.9490 47° Northeast 451 519 37,000  Level FlightAware
01:49AM 14.4910 -61.8960 46° Northeast 451 519 37,000  Level FlightAware
01:49AM 14.5400 -61.8420 47° Northeast 451 519 37,000  Level FlightAware
01:50AM 14.5920 -61.7860 46° Northeast 450 518 37,000  Level FlightAware
01:51AM 14.6460 -61.7270 47° Northeast 452 520 37,000  Level FlightAware
01:51AM 14.6940 -61.6750 46° Northeast 451 519 37,000  Level FlightAware
01:52AM 14.7430 -61.6230 46° Northeast 452 520 37,000  Level FlightAware
01:52AM 14.7900 -61.5710 47° Northeast 452 520 37,000  Level FlightAware
01:53AM 14.8470 -61.5100 46° Northeast 453 521 37,000  Level FlightAware
01:54AM 14.9010 -61.4510 47° Northeast 454 522 37,000  Level FlightAware
01:54AM 14.9460 -61.4020 46° Northeast 454 522 37,000  Level FlightAware
01:55AM 14.9930 -61.3500 47° Northeast 454 522 37,000  Level FlightAware
01:55AM 15.0480 -61.2910 46° Northeast 454 522 37,000  Level FlightAware
01:56AM 15.0930 -61.2420 46° Northeast 452 520 37,000  Level FlightAware
01:56AM 15.1480 -61.1820 46° Northeast 452 520 37,000  Level FlightAware
01:57AM 15.2030 -61.1210 47° Northeast 451 519 37,000  Level FlightAware
01:58AM 15.2680 -61.0510 46° Northeast 450 518 37,000  Level FlightAware
01:58AM 15.3180 -60.9960 47° Northeast 451 519 37,000  Level FlightAware
01:59AM 15.3700 -60.9400 46° Northeast 452 520 37,000  Level FlightAware
02:00AM 15.4210 -60.8830 47° Northeast 452 520 37,000  Level FlightAware
02:00AM 15.4790 -60.8190 47° Northeast 452 520 37,000  Level FlightAware
02:01AM 15.5290 -60.7660 46° Northeast 450 518 37,000  Level FlightAware
02:01AM 15.5750 -60.7140 47° Northeast 449 517 37,000  Level FlightAware
02:02AM 15.6290 -60.6560 46° Northeast 449 517 37,000  Level FlightAware
02:03AM 15.6810 -60.5980 47° Northeast 451 519 37,000  Level FlightAware
02:03AM 15.7340 -60.5400 46° Northeast 449 517 37,000  Level FlightAware
02:04AM 15.7830 -60.4860 47° Northeast 449 517 37,000  Level FlightAware
02:04AM 15.8340 -60.4300 47° Northeast 449 517 37,000  Level FlightAware
02:05AM 15.8720 -60.3890 46° Northeast 449 517 37,000  Level FlightAware
02:06AM 15.9450 -60.3080 47° Northeast 452 520 37,000  Level FlightAware
02:06AM 15.9910 -60.2570 47° Northeast 453 521 37,000  Level FlightAware
02:07AM 16.0430 -60.1990 47° Northeast 454 522 37,000  Level FlightAware
02:07AM 16.0940 -60.1430 47° Northeast 454 522 37,000  Level FlightAware
02:08AM 16.1490 -60.0820 47° Northeast 454 522 37,000  Level FlightAware
02:09AM 16.2010 -60.0240 47° Northeast 454 522 37,000  Level FlightAware
02:09AM 16.2530 -59.9670 46° Northeast 455 524 37,000  Level FlightAware
02:10AM 16.3020 -59.9110 48° Northeast 455 524 37,000  Level FlightAware
02:10AM 16.3530 -59.8550 46° Northeast 455 524 37,000  Level FlightAware
02:11AM 16.4030 -59.8000 47° Northeast 453 521 37,000  Level FlightAware
02:12AM 16.4500 -59.7480 47° Northeast 453 521 37,000  Level FlightAware
02:12AM 16.4990 -59.6930 47° Northeast 452 520 37,000  Level FlightAware
02:13AM 16.5540 -59.6320 47° Northeast 452 520 37,000  Level FlightAware
02:13AM 16.6000 -59.5810 47° Northeast 450 518 37,000  Level FlightAware
02:14AM 16.6480 -59.5260 48° Northeast 450 518 37,000  Level FlightAware
02:15AM 16.7080 -59.4600 46° Northeast 450 518 37,000  Level FlightAware
02:15AM 16.7510 -59.4120 47° Northeast 450 518 37,000  Level FlightAware
02:16AM 16.7990 -59.3580 47° Northeast 448 516 37,000  Level FlightAware
02:16AM 16.8520 -59.2980 47° Northeast 447 514 37,000  Level FlightAware
02:17AM 16.8970 -59.2480 47° Northeast 445 512 37,000  Level FlightAware
02:18AM 16.9600 -59.1770 47° Northeast 444 511 37,000  Level FlightAware
02:18AM 17.0060 -59.1250 47° Northeast 444 511 37,000  Level FlightAware
02:19AM 17.0720 -59.0520 47° Northeast 445 512 37,000  Level FlightAware
02:19AM 17.1170 -59.0000 48° Northeast 445 512 37,000  Level FlightAware
02:20AM 17.1670 -58.9450 46° Northeast 445 512 37,000  Level FlightAware
02:21AM 17.2170 -58.8890 47° Northeast 445 512 37,000  Level FlightAware
02:21AM 17.2760 -58.8220 47° Northeast 446 513 37,000  Level FlightAware
02:22AM 17.3200 -58.7720 47° Northeast 446 513 37,000  Level FlightAware
02:22AM 17.3670 -58.7200 47° Northeast 444 511 37,000  Level FlightAware
02:23AM 17.4220 -58.6570 48° Northeast 443 510 37,000  Level FlightAware
02:24AM 17.4650 -58.6090 47° Northeast 443 510 37,000  Level FlightAware
02:24AM 17.5070 -58.5610 47° Northeast 443 510 37,000  Level FlightAware
02:25AM 17.5500 -58.5130 47° Northeast 443 510 37,000  Level FlightAware
02:26AM 17.5930 -58.4650 47° Northeast 443 510 37,000  Level FlightAware
02:26AM 17.6360 -58.4170 47° Northeast 443 510 37,000  Level FlightAware
02:27AM 17.6780 -58.3690 47° Northeast 443 510 37,000  Level FlightAware
02:27AM 17.7210 -58.3200 47° Northeast 443 510 37,000  Level FlightAware
02:28AM 17.7640 -58.2720 47° Northeast 443 510 37,000  Level FlightAware
02:29AM 17.8070 -58.2240 47° Northeast 443 510 37,000  Level FlightAware
02:29AM 17.8500 -58.1760 47° Northeast 443 510 37,000  Level FlightAware
02:30AM 17.8940 -58.1260 47° Northeast 443 510 37,000  Level FlightAware
02:30AM 17.9370 -58.0770 47° Northeast 443 510 37,000  Level FlightAware
02:31AM 17.9800 -58.0290 47° Northeast 443 510 37,000  Level FlightAware
02:32AM 18.0230 -57.9800 47° Northeast 443 510 37,000  Level FlightAware
02:32AM 18.0660 -57.9320 47° Northeast 443 510 37,000  Level FlightAware
02:34AM 18.0000 -58.0000 67° East 456 525 37,000  Level New York Oceanic (ODAPS)
02:35AM 18.1717 -57.6550 68° East  Level FlightAware Approximate
02:36AM 18.2179 -57.5336 68° East  Level FlightAware Approximate
02:37AM 18.2640 -57.4121 68° East  Level FlightAware Approximate
02:38AM 18.3100 -57.2905 68° East  Level FlightAware Approximate
02:39AM 18.3559 -57.1689 68° East  Level FlightAware Approximate
02:40AM 18.4018 -57.0472 68° East  Level FlightAware Approximate
02:41AM 18.5401 -56.6459 67° East 456 525 37,000  Level FlightAware Transoceanic
02:42AM 18.5888 -56.5224 67° East 456 525 37,000  Level FlightAware Transoceanic
02:43AM 18.6373 -56.3988 68° East 456 525 37,000  Level FlightAware Transoceanic
02:44AM 18.6858 -56.2752 68° East 456 525 37,000  Level FlightAware Transoceanic
02:45AM 18.7341 -56.1515 68° East 456 525 37,000  Level FlightAware Transoceanic
02:46AM 18.7824 -56.0276 68° East 456 525 37,000  Level FlightAware Transoceanic
02:47AM 18.8307 -55.9038 68° East 456 525 37,000  Level FlightAware Transoceanic
02:48AM 18.8788 -55.7798 68° East 456 525 37,000  Level FlightAware Transoceanic
02:49AM 18.9269 -55.6558 68° East 456 525 37,000  Level FlightAware Transoceanic
02:50AM 18.9748 -55.5317 68° East 456 525 37,000  Level FlightAware Transoceanic
02:51AM 19.0227 -55.4076 68° East 456 525 37,000  Level FlightAware Transoceanic
02:52AM 19.0705 -55.2834 68° East 456 525 37,000  Level FlightAware Transoceanic
02:53AM 19.1183 -55.1591 68° East 456 525 37,000  Level FlightAware Transoceanic
02:54AM 19.1659 -55.0347 68° East 456 525 37,000  Level FlightAware Transoceanic
02:55AM 19.2135 -54.9103 68° East 456 525 37,000  Level FlightAware Transoceanic
02:56AM 19.2609 -54.7858 68° East 456 525 37,000  Level FlightAware Transoceanic
02:57AM 19.3083 -54.6612 68° East 456 525 37,000  Level FlightAware Transoceanic
02:58AM 19.3556 -54.5365 68° East 456 525 37,000  Level FlightAware Transoceanic
02:59AM 19.4029 -54.4118 68° East 456 525 37,000  Level FlightAware Transoceanic
03:00AM 19.4500 -54.2870 68° East 456 525 37,000  Level FlightAware Transoceanic
03:01AM 19.4970 -54.1621 68° East 456 525 37,000  Level FlightAware Transoceanic
03:02AM 19.5440 -54.0372 68° East 456 525 37,000  Level FlightAware Transoceanic
03:03AM 19.5909 -53.9121 68° East 456 525 37,000  Level FlightAware Transoceanic
03:04AM 19.6377 -53.7870 68° East 456 525 37,000  Level FlightAware Transoceanic
03:05AM 19.6844 -53.6619 68° East 456 525 37,000  Level FlightAware Transoceanic
03:06AM 19.7310 -53.5366 68° East 456 525 37,000  Level FlightAware Transoceanic
03:07AM 19.7775 -53.4113 68° East 456 525 37,000  Level FlightAware Transoceanic
03:08AM 19.8240 -53.2859 69° East 456 525 37,000  Level FlightAware Transoceanic
03:09AM 19.8703 -53.1605 69° East 456 525 37,000  Level FlightAware Transoceanic
03:10AM 19.9166 -53.0350 69° East 456 525 37,000  Level FlightAware Transoceanic
03:11AM 19.9628 -52.9094 69° East 456 525 37,000  Level FlightAware Transoceanic
03:12AM 20.0089 -52.7837 69° East 456 525 37,000  Level FlightAware Transoceanic
03:13AM 20.0549 -52.6579 69° East 456 525 37,000  Level FlightAware Transoceanic
03:14AM 20.1008 -52.5321 69° East 456 525 37,000  Level FlightAware Transoceanic
03:15AM 20.1466 -52.4062 69° East 456 525 37,000  Level FlightAware Transoceanic
03:16AM 20.1924 -52.2802 69° East 456 525 37,000  Level FlightAware Transoceanic
03:17AM 20.2380 -52.1542 69° East 456 525 37,000  Level FlightAware Transoceanic
03:18AM 20.2836 -52.0280 69° East 456 525 37,000  Level FlightAware Transoceanic
03:19AM 20.3290 -51.9019 69° East 456 525 37,000  Level FlightAware Transoceanic
03:20AM 20.3744 -51.7756 69° East 456 525 37,000  Level FlightAware Transoceanic
03:21AM 20.4197 -51.6493 69° East 456 525 37,000  Level FlightAware Transoceanic
03:22AM 20.4649 -51.5228 69° East 456 525 37,000  Level FlightAware Transoceanic
03:23AM 20.5100 -51.3963 69° East 456 525 37,000  Level FlightAware Transoceanic
03:24AM 20.5550 -51.2698 69° East 456 525 37,000  Level FlightAware Transoceanic
03:25AM 20.5999 -51.1431 69° East 456 525 37,000  Level FlightAware Transoceanic
03:26AM 20.6447 -51.0164 69° East 456 525 37,000  Level FlightAware Transoceanic
03:27AM 20.6895 -50.8896 69° East 456 525 37,000  Level FlightAware Transoceanic
03:28AM 20.7341 -50.7628 69° East 456 525 37,000  Level FlightAware Transoceanic
03:29AM 20.7787 -50.6358 69° East 456 525 37,000  Level FlightAware Transoceanic
03:30AM 20.8231 -50.5088 69° East 456 525 37,000  Level FlightAware Transoceanic
03:31AM 20.8675 -50.3817 70° East 456 525 37,000  Level FlightAware Transoceanic
03:32AM 20.9118 -50.2546 70° East 456 525 37,000  Level FlightAware Transoceanic
03:33AM 20.9559 -50.1273 70° East 456 525 37,000  Level FlightAware Transoceanic
03:34AM 21.0000 -50.0000 59° Northeast 456 525 37,000  Level FlightAware Transoceanic
03:35AM 21.0679 -49.8765 60° Northeast 456 525 37,000  Level FlightAware Transoceanic
03:36AM 21.1358 -49.7528 60° Northeast 456 525 37,000  Level FlightAware Transoceanic
03:37AM 21.2036 -49.6290 60° Northeast 456 525 37,000  Level FlightAware Transoceanic
03:38AM 21.2712 -49.5052 60° Northeast 456 525 37,000 1,680 Level FlightAware Transoceanic
03:38AM 21.0000 -50.0000 59° Northeast 475 547 39,000  Climbing New York Oceanic (ODAPS)
03:39AM 21.3388 -49.3812 60° Northeast 456 525 37,000 -1,140 Descending FlightAware Transoceanic
03:40AM 21.4063 -49.2571 60° Northeast 456 525 37,000  Level FlightAware Transoceanic
03:41AM 21.4737 -49.1328 60° Northeast 456 525 37,000  Level FlightAware Transoceanic
03:42AM 21.5410 -49.0085 60° Northeast 456 525 37,000  Level FlightAware Transoceanic
03:43AM 21.6083 -48.8840 60° Northeast 456 525 37,000 960 Level FlightAware Transoceanic
03:44AM 21.6006 -48.8982 60° Northeast 475 547 39,000 960 Climbing FlightAware Transoceanic
03:45AM 21.6669 -48.7752 60° Northeast 475 547 39,000  Level FlightAware Transoceanic
03:46AM 21.7331 -48.6521 60° Northeast 475 547 39,000  Level FlightAware Transoceanic
03:47AM 21.7992 -48.5289 60° Northeast 475 547 39,000  Level FlightAware Transoceanic
03:48AM 21.8652 -48.4056 60° Northeast 475 547 39,000  Level FlightAware Transoceanic
03:49AM 21.9312 -48.2822 60° Northeast 475 547 39,000  Level FlightAware Transoceanic
03:50AM 21.9970 -48.1586 60° Northeast 475 547 39,000  Level FlightAware Transoceanic
03:51AM 22.0627 -48.0350 60° Northeast 475 547 39,000  Level FlightAware Transoceanic
03:52AM 22.1284 -47.9112 60° Northeast 475 547 39,000  Level FlightAware Transoceanic
03:53AM 22.1939 -47.7873 60° Northeast 475 547 39,000  Level FlightAware Transoceanic
03:54AM 22.2594 -47.6633 60° Northeast 475 547 39,000  Level FlightAware Transoceanic
03:55AM 22.3247 -47.5392 60° Northeast 475 547 39,000  Level FlightAware Transoceanic
03:56AM 22.3900 -47.4150 60° Northeast 475 547 39,000  Level FlightAware Transoceanic
03:57AM 22.4552 -47.2906 60° Northeast 475 547 39,000  Level FlightAware Transoceanic
03:58AM 22.5203 -47.1661 61° Northeast 475 547 39,000  Level FlightAware Transoceanic
03:59AM 22.5853 -47.0415 61° Northeast 475 547 39,000  Level FlightAware Transoceanic
04:00AM 22.6501 -46.9168 61° Northeast 475 547 39,000  Level FlightAware Transoceanic
04:01AM 22.7149 -46.7920 61° Northeast 475 547 39,000  Level FlightAware Transoceanic
04:02AM 22.7796 -46.6670 61° Northeast 475 547 39,000  Level FlightAware Transoceanic
04:03AM 22.8442 -46.5420 61° Northeast 475 547 39,000  Level FlightAware Transoceanic
04:04AM 22.9087 -46.4168 61° Northeast 475 547 39,000  Level FlightAware Transoceanic
04:05AM 22.9731 -46.2915 61° Northeast 475 547 39,000  Level FlightAware Transoceanic
04:06AM 23.0374 -46.1661 61° Northeast 475 547 39,000  Level FlightAware Transoceanic
04:07AM 23.1016 -46.0406 61° Northeast 475 547 39,000  Level FlightAware Transoceanic
04:08AM 23.1657 -45.9149 61° Northeast 475 547 39,000  Level FlightAware Transoceanic
04:09AM 23.2297 -45.7891 61° Northeast 475 547 39,000  Level FlightAware Transoceanic
04:10AM 23.2936 -45.6632 61° Northeast 475 547 39,000  Level FlightAware Transoceanic
04:11AM 23.3574 -45.5372 61° Northeast 475 547 39,000  Level FlightAware Transoceanic
04:12AM 23.4211 -45.4110 61° Northeast 475 547 39,000  Level FlightAware Transoceanic
04:13AM 23.4847 -45.2848 61° Northeast 475 547 39,000  Level FlightAware Transoceanic
04:14AM 23.5482 -45.1584 61° Northeast 475 547 39,000  Level FlightAware Transoceanic
04:15AM 23.6116 -45.0319 61° Northeast 475 547 39,000  Level FlightAware Transoceanic
04:16AM 23.6749 -44.9053 61° Northeast 475 547 39,000  Level FlightAware Transoceanic
04:17AM 23.7381 -44.7785 61° Northeast 475 547 39,000  Level FlightAware Transoceanic
04:18AM 23.8012 -44.6516 62° Northeast 475 547 39,000  Level FlightAware Transoceanic
04:19AM 23.8642 -44.5246 62° Northeast 475 547 39,000  Level FlightAware Transoceanic
04:20AM 23.9271 -44.3975 62° Northeast 475 547 39,000  Level FlightAware Transoceanic
04:21AM 23.9898 -44.2703 62° Northeast 475 547 39,000  Level FlightAware Transoceanic
04:22AM 24.0525 -44.1429 62° Northeast 475 547 39,000  Level FlightAware Transoceanic
04:23AM 24.1151 -44.0154 62° Northeast 475 547 39,000  Level FlightAware Transoceanic
04:24AM 24.1775 -43.8878 62° Northeast 475 547 39,000  Level FlightAware Transoceanic
04:25AM 24.2399 -43.7601 62° Northeast 475 547 39,000  Level FlightAware Transoceanic
04:26AM 24.3022 -43.6322 62° Northeast 475 547 39,000  Level FlightAware Transoceanic
04:27AM 24.3643 -43.5042 62° Northeast 475 547 39,000  Level FlightAware Transoceanic
04:28AM 24.4263 -43.3761 62° Northeast 475 547 39,000  Level FlightAware Transoceanic
04:29AM 24.4882 -43.2478 62° Northeast 475 547 39,000  Level FlightAware Transoceanic
04:30AM 24.5501 -43.1194 62° Northeast 475 547 39,000  Level FlightAware Transoceanic
04:31AM 24.6118 -42.9910 62° Northeast 475 547 39,000  Level FlightAware Transoceanic
04:32AM 24.6734 -42.8623 62° Northeast 475 547 39,000  Level FlightAware Transoceanic
04:33AM 24.7348 -42.7336 62° Northeast 475 547 39,000  Level FlightAware Transoceanic
04:34AM 24.7962 -42.6047 62° Northeast 475 547 39,000  Level FlightAware Transoceanic
04:35AM 24.8575 -42.4757 62° Northeast 475 547 39,000  Level FlightAware Transoceanic
04:36AM 24.9186 -42.3465 62° Northeast 475 547 39,000  Level FlightAware Transoceanic
04:37AM 24.9797 -42.2173 63° Northeast 475 547 39,000  Level FlightAware Transoceanic
04:38AM 25.0406 -42.0879 63° Northeast 475 547 39,000  Level FlightAware Transoceanic
04:39AM 25.1014 -41.9584 63° Northeast 475 547 39,000  Level FlightAware Transoceanic
04:40AM 25.1621 -41.8287 63° Northeast 475 547 39,000  Level FlightAware Transoceanic
04:41AM 25.2227 -41.6990 63° Northeast 475 547 39,000  Level FlightAware Transoceanic
04:42AM 25.2832 -41.5690 63° Northeast 475 547 39,000  Level FlightAware Transoceanic
04:43AM 25.3436 -41.4390 63° Northeast 475 547 39,000  Level FlightAware Transoceanic
04:44AM 25.4039 -41.3088 63° Northeast 475 547 39,000  Level FlightAware Transoceanic
04:45AM 25.4640 -41.1786 63° Northeast 475 547 39,000  Level FlightAware Transoceanic
04:46AM 25.5240 -41.0481 63° Northeast 475 547 39,000  Level FlightAware Transoceanic
04:47AM 25.5839 -40.9176 63° Northeast 475 547 39,000  Level FlightAware Transoceanic
04:48AM 25.6437 -40.7869 63° Northeast 475 547 39,000  Level FlightAware Transoceanic
04:49AM 25.7034 -40.6561 63° Northeast 475 547 39,000  Level FlightAware Transoceanic
04:50AM 25.7629 -40.5251 63° Northeast 475 547 39,000  Level FlightAware Transoceanic
04:51AM 25.8224 -40.3940 63° Northeast 475 547 39,000  Level FlightAware Transoceanic
04:52AM 25.8817 -40.2628 63° Northeast 475 547 39,000  Level FlightAware Transoceanic
04:53AM 25.9409 -40.1315 63° Northeast 475 547 39,000  Level FlightAware Transoceanic
04:54AM 26.0000 -40.0000 53° Northeast 475 547 39,000  Level FlightAware Transoceanic
04:55AM 26.0813 -39.8789 53° Northeast 475 547 39,000  Level FlightAware Transoceanic
04:55AM 26.0000 -40.0000 53° Northeast 489 563 39,000  Level ETMS Enhanced Traffic Management System
04:56AM 26.1626 -39.7576 53° Northeast 475 547 39,000  Level FlightAware Transoceanic
04:57AM 26.2437 -39.6361 53° Northeast 475 547 39,000  Level FlightAware Transoceanic
04:58AM 26.3248 -39.5145 53° Northeast 475 547 39,000  Level FlightAware Transoceanic
04:59AM 26.4057 -39.3927 53° Northeast 475 547 39,000  Level FlightAware Transoceanic
05:00AM 26.4865 -39.2707 54° Northeast 475 547 39,000  Level FlightAware Transoceanic
05:01AM 26.7284 -38.9038 54° Northeast 489 563 39,000  Level FlightAware Transoceanic
05:02AM 26.8088 -38.7811 54° Northeast 489 563 39,000  Level FlightAware Transoceanic
05:03AM 26.8891 -38.6582 54° Northeast 489 563 39,000  Level FlightAware Transoceanic
05:04AM 26.9693 -38.5352 54° Northeast 489 563 39,000  Level FlightAware Transoceanic
05:05AM 27.0494 -38.4120 54° Northeast 489 563 39,000  Level FlightAware Transoceanic
05:06AM 27.1294 -38.2887 54° Northeast 489 563 39,000  Level FlightAware Transoceanic
05:07AM 27.2093 -38.1651 54° Northeast 489 563 39,000  Level FlightAware Transoceanic
05:08AM 27.2891 -38.0414 54° Northeast 489 563 39,000  Level FlightAware Transoceanic
05:09AM 27.3687 -37.9175 54° Northeast 489 563 39,000  Level FlightAware Transoceanic
05:10AM 27.4483 -37.7934 54° Northeast 489 563 39,000  Level FlightAware Transoceanic
05:11AM 27.5277 -37.6692 54° Northeast 489 563 39,000  Level FlightAware Transoceanic
05:12AM 27.6071 -37.5448 54° Northeast 489 563 39,000  Level FlightAware Transoceanic
05:13AM 27.6863 -37.4202 54° Northeast 489 563 39,000  Level FlightAware Transoceanic
05:14AM 27.7654 -37.2954 54° Northeast 489 563 39,000  Level FlightAware Transoceanic
05:15AM 27.8444 -37.1704 54° Northeast 489 563 39,000  Level FlightAware Transoceanic
05:16AM 27.9233 -37.0452 55° Northeast 489 563 39,000  Level FlightAware Transoceanic
05:17AM 28.0020 -36.9199 55° Northeast 489 563 39,000  Level FlightAware Transoceanic
05:18AM 28.0807 -36.7944 55° Northeast 489 563 39,000  Level FlightAware Transoceanic
05:19AM 28.1592 -36.6687 55° Northeast 489 563 39,000  Level FlightAware Transoceanic
05:20AM 28.2377 -36.5428 55° Northeast 489 563 39,000  Level FlightAware Transoceanic
05:21AM 28.3160 -36.4167 55° Northeast 489 563 39,000  Level FlightAware Transoceanic
05:22AM 28.3942 -36.2904 55° Northeast 489 563 39,000  Level FlightAware Transoceanic
05:23AM 28.4723 -36.1640 55° Northeast 489 563 39,000  Level FlightAware Transoceanic
05:24AM 28.5502 -36.0373 55° Northeast 489 563 39,000  Level FlightAware Transoceanic
05:25AM 28.6281 -35.9105 55° Northeast 489 563 39,000  Level FlightAware Transoceanic
05:26AM 28.7058 -35.7835 55° Northeast 489 563 39,000  Level FlightAware Transoceanic
05:27AM 28.7834 -35.6563 55° Northeast 489 563 39,000  Level FlightAware Transoceanic
05:28AM 28.8609 -35.5289 55° Northeast 489 563 39,000  Level FlightAware Transoceanic
05:29AM 28.9383 -35.4013 55° Northeast 489 563 39,000  Level FlightAware Transoceanic
05:30AM 29.0155 -35.2736 55° Northeast 489 563 39,000  Level FlightAware Transoceanic
05:31AM 29.0926 -35.1456 55° Northeast 489 563 39,000  Level FlightAware Transoceanic
05:32AM 29.1696 -35.0175 56° Northeast 489 563 39,000  Level FlightAware Transoceanic
05:33AM 29.2465 -34.8891 56° Northeast 489 563 39,000  Level FlightAware Transoceanic
05:34AM 29.3233 -34.7606 56° Northeast 489 563 39,000  Level FlightAware Transoceanic
05:35AM 29.3999 -34.6319 56° Northeast 489 563 39,000  Level FlightAware Transoceanic
05:36AM 29.4764 -34.5029 56° Northeast 489 563 39,000  Level FlightAware Transoceanic
05:37AM 29.5528 -34.3738 56° Northeast 489 563 39,000  Level FlightAware Transoceanic
05:38AM 29.6291 -34.2445 56° Northeast 489 563 39,000  Level FlightAware Transoceanic
05:39AM 29.7052 -34.1150 56° Northeast 489 563 39,000  Level FlightAware Transoceanic
05:40AM 29.7812 -33.9853 56° Northeast 489 563 39,000  Level FlightAware Transoceanic
05:41AM 29.8571 -33.8554 56° Northeast 489 563 39,000  Level FlightAware Transoceanic
05:42AM 29.9329 -33.7253 56° Northeast 489 563 39,000  Level FlightAware Transoceanic
05:43AM 30.0085 -33.5950 56° Northeast 489 563 39,000  Level FlightAware Transoceanic
05:44AM 30.0840 -33.4645 56° Northeast 489 563 39,000  Level FlightAware Transoceanic
05:45AM 30.1594 -33.3338 56° Northeast 489 563 39,000  Level FlightAware Transoceanic
05:46AM 30.2346 -33.2029 56° Northeast 489 563 39,000  Level FlightAware Transoceanic
05:47AM 30.3097 -33.0718 56° Northeast 489 563 39,000  Level FlightAware Transoceanic
05:48AM 30.3847 -32.9405 57° Northeast 489 563 39,000  Level FlightAware Transoceanic
05:49AM 30.4596 -32.8090 57° Northeast 489 563 39,000  Level FlightAware Transoceanic
05:50AM 30.5343 -32.6773 57° Northeast 489 563 39,000  Level FlightAware Transoceanic
05:51AM 30.6089 -32.5454 57° Northeast 489 563 39,000  Level FlightAware Transoceanic
05:52AM 30.6833 -32.4133 57° Northeast 489 563 39,000  Level FlightAware Transoceanic
05:53AM 30.7577 -32.2810 57° Northeast 489 563 39,000  Level FlightAware Transoceanic
05:54AM 30.8318 -32.1485 57° Northeast 489 563 39,000  Level FlightAware Transoceanic
05:55AM 30.9059 -32.0157 57° Northeast 489 563 39,000  Level FlightAware Transoceanic
05:56AM 30.9798 -31.8828 57° Northeast 489 563 39,000  Level FlightAware Transoceanic
05:57AM 31.0536 -31.7497 57° Northeast 489 563 39,000  Level FlightAware Transoceanic
05:58AM 31.1272 -31.6163 57° Northeast 489 563 39,000  Level FlightAware Transoceanic
05:59AM 31.2007 -31.4828 57° Northeast 489 563 39,000  Level FlightAware Transoceanic
06:00AM 31.2741 -31.3491 57° Northeast 489 563 39,000  Level FlightAware Transoceanic
06:01AM 31.3473 -31.2151 57° Northeast 489 563 39,000  Level FlightAware Transoceanic
06:02AM 31.4204 -31.0809 57° Northeast 489 563 39,000  Level FlightAware Transoceanic
06:03AM 31.4933 -30.9465 58° Northeast 489 563 39,000  Level FlightAware Transoceanic
06:04AM 31.5662 -30.8120 58° Northeast 489 563 39,000  Level FlightAware Transoceanic
06:05AM 31.6388 -30.6772 58° Northeast 489 563 39,000  Level FlightAware Transoceanic
06:06AM 31.7113 -30.5422 58° Northeast 489 563 39,000  Level FlightAware Transoceanic
06:07AM 31.7837 -30.4069 58° Northeast 489 563 39,000  Level FlightAware Transoceanic
06:08AM 31.8560 -30.2715 58° Northeast 489 563 39,000  Level FlightAware Transoceanic
06:09AM 31.9280 -30.1359 58° Northeast 489 563 39,000  Level FlightAware Transoceanic
06:10AM 32.0000 -30.0000 62° Northeast 489 563 39,000  Level FlightAware Transoceanic
06:11AM 34.1013 -25.1181 64° Northeast 489 563 39,000  Level FlightAware Transoceanic
06:12AM 34.1572 -24.9841 62° Northeast  Level Estimated
06:13AM 34.2111 -24.8487 64° Northeast  Level FlightAware Approximate
06:14AM 34.2648 -24.7132 64° Northeast  Level FlightAware Approximate
06:15AM 34.3184 -24.5775 64° Northeast  Level FlightAware Approximate
06:16AM 34.3718 -24.4416 64° Northeast  Level FlightAware Approximate
06:17AM 34.4251 -24.3056 65° Northeast  Level FlightAware Approximate
06:18AM 34.4782 -24.1693 65° Northeast  Level FlightAware Approximate
06:19AM 34.5312 -24.0330 65° Northeast  Level FlightAware Approximate
06:20AM 34.5840 -23.8964 65° Northeast  Level FlightAware Approximate
06:21AM 34.6367 -23.7597 65° Northeast  Level FlightAware Approximate
06:22AM 34.6892 -23.6227 65° Northeast  Level FlightAware Approximate
06:23AM 34.7415 -23.4857 65° Northeast  Level FlightAware Approximate
06:24AM 34.7938 -23.3484 65° Northeast  Level FlightAware Approximate
06:25AM 34.8458 -23.2110 65° Northeast  Level FlightAware Approximate
06:26AM 34.8977 -23.0734 65° Northeast  Level FlightAware Approximate
06:27AM 34.9494 -22.9356 65° Northeast  Level FlightAware Approximate
06:27AM 33.0780 -27.5830 65° Northeast 459 528 40,000  Level FlightAware
06:28AM 35.0010 -22.7976 65° Northeast  Level FlightAware Approximate
06:28AM 33.1080 -27.5140 63° Northeast 459 528 40,000  Level FlightAware
06:28AM 33.1390 -27.4460 61° Northeast 459 528 40,000  Level FlightAware
06:29AM 33.1690 -27.3770 63° Northeast 459 528 40,000  Level FlightAware
06:30AM 33.2000 -27.3080 62° Northeast 459 528 40,000  Level FlightAware
06:30AM 33.2300 -27.2400 62° Northeast 459 528 40,000  Level FlightAware
06:31AM 33.2610 -27.1710 62° Northeast 459 528 40,000  Level FlightAware
06:31AM 33.2910 -27.1030 62° Northeast 459 528 40,000  Level FlightAware
06:32AM 33.3220 -27.0340 62° Northeast 459 528 40,000  Level FlightAware
06:33AM 33.3530 -26.9630 62° Northeast 459 528 40,000  Level FlightAware
06:35AM 33.4581 -26.7126 63° Northeast  Level FlightAware Approximate
06:35AM 33.5080 -26.5670 63° Northeast 40,000  Level FlightAware
06:35AM 33.5610 -26.4400 63° Northeast 450 518 40,000  Level FlightAware
06:36AM 33.5960 -26.3570 63° Northeast 450 518 40,000  Level FlightAware
06:37AM 33.6300 -26.2750 64° Northeast 451 519 40,000  Level FlightAware
06:37AM 33.6590 -26.2060 63° Northeast 451 519 40,000  Level FlightAware
06:38AM 33.7100 -26.0840 63° Northeast 453 521 40,000  Level FlightAware
06:39AM 33.7480 -25.9900 64° Northeast 453 521 40,000  Level FlightAware
06:39AM 33.7900 -25.8860 64° Northeast 452 520 40,000  Level FlightAware
06:40AM 33.8150 -25.8260 63° Northeast 453 521 40,000  Level FlightAware
06:41AM 33.8420 -25.7610 63° Northeast 454 522 40,000  Level FlightAware
06:41AM 33.8930 -25.6360 64° Northeast 456 525 40,000  Level FlightAware
06:42AM 33.9330 -25.5360 64° Northeast 457 526 40,000  Level FlightAware
06:43AM 33.9580 -25.4730 64° Northeast 457 526 40,000  Level FlightAware
06:43AM 34.0070 -25.3530 64° Northeast 456 525 40,000  Level FlightAware
06:44AM 34.0410 -25.2690 64° Northeast 455 524 40,000  Level FlightAware
06:45AM 34.0760 -25.1820 64° Northeast 455 524 40,000  Level FlightAware
06:45AM 34.1030 -25.1150 64° Northeast 453 521 40,000  Level FlightAware
06:46AM 34.1310 -25.0460 64° Northeast 453 521 40,000  Level FlightAware
06:46AM 34.1660 -24.9570 65° Northeast 449 517 40,000  Level FlightAware
06:47AM 34.2040 -24.8610 64° Northeast 447 514 40,000  Level FlightAware
06:48AM 34.2350 -24.7840 64° Northeast 447 514 40,000  Level FlightAware
06:48AM 34.2780 -24.6750 64° Northeast 447 514 40,000  Level FlightAware
06:49AM 34.3120 -24.5880 65° Northeast 446 513 40,000  Level FlightAware
06:50AM 34.3510 -24.4900 64° Northeast 446 513 40,000  Level FlightAware
06:51AM 34.3800 -24.4180 64° Northeast 446 513 40,000  Level FlightAware
06:51AM 34.4320 -24.2850 65° Northeast 445 512 40,000  Level FlightAware
06:52AM 34.4660 -24.1970 65° Northeast 444 511 40,000  Level FlightAware
06:53AM 34.5010 -24.1070 65° Northeast 443 510 40,000  Level FlightAware
06:53AM 34.5320 -24.0260 65° Northeast 443 510 40,000  Level FlightAware
06:54AM 34.5750 -23.9160 65° Northeast 442 509 40,000  Level FlightAware
06:55AM 34.6090 -23.8270 65° Northeast 442 509 40,000  Level FlightAware
06:55AM 34.6460 -23.7320 65° Northeast 443 510 40,000  Level FlightAware
06:56AM 34.6770 -23.6510 65° Northeast 443 510 40,000  Level FlightAware
06:57AM 34.7030 -23.5820 65° Northeast 443 510 40,000  Level FlightAware
06:57AM 34.7300 -23.5130 65° Northeast 443 510 40,000  Level FlightAware
06:58AM 34.7560 -23.4440 65° Northeast 443 510 40,000  Level FlightAware
06:58AM 34.7830 -23.3730 65° Northeast 443 510 40,000  Level FlightAware
06:59AM 34.8100 -23.3040 65° Northeast 443 510 40,000  Level FlightAware
07:00AM 34.8360 -23.2340 66° East 443 510 40,000  Level FlightAware
07:00AM 34.8630 -23.1650 64° Northeast 443 510 40,000  Level FlightAware
07:01AM 34.8890 -23.0960 65° Northeast 443 510 40,000  Level FlightAware
07:01AM 34.9160 -23.0260 65° Northeast 443 510 40,000  Level FlightAware
07:02AM 34.9420 -22.9570 65° Northeast 443 510 40,000  Level FlightAware
07:03AM 34.9690 -22.8880 64° Northeast 443 510 40,000  Level FlightAware
07:03AM 34.9960 -22.8160 65° Northeast 443 510 40,000  Level FlightAware
07:04AM 35.0230 -22.7470 64° Northeast 443 510 40,000  Level FlightAware
07:05AM 35.0490 -22.6780 65° Northeast 443 510 40,000  Level FlightAware
07:05AM 35.0760 -22.6080 65° Northeast 443 510 40,000  Level FlightAware
07:08AM 35.1982 -22.2754 66° East  Level FlightAware Approximate
07:09AM 35.2488 -22.1365 66° East  Level FlightAware Approximate
07:10AM 35.2993 -21.9974 66° East  Level FlightAware Approximate
07:11AM 35.3496 -21.8582 66° East  Level FlightAware Approximate
07:12AM 35.3998 -21.7187 66° East  Level FlightAware Approximate
07:13AM 35.4498 -21.5791 66° East  Level FlightAware Approximate
07:14AM 35.4996 -21.4394 66° East  Level FlightAware Approximate
07:15AM 35.5493 -21.2994 66° East  Level FlightAware Approximate
07:16AM 35.5988 -21.1593 66° East  Level FlightAware Approximate
07:17AM 35.6482 -21.0191 67° East  Level FlightAware Approximate
07:18AM 35.6974 -20.8786 67° East  Level FlightAware Approximate
07:18AM 35.7700 -20.6660 67° East 441 507 40,000  Level FlightAware
07:19AM 35.7970 -20.5920 66° East 441 507 40,000  Level FlightAware
07:19AM 35.8220 -20.5220 66° East 441 507 40,000  Level FlightAware
07:20AM 35.8490 -20.4470 66° East 441 507 40,000  Level FlightAware
07:21AM 35.8740 -20.3770 66° East 441 507 40,000  Level FlightAware
07:21AM 35.9000 -20.3070 65° Northeast 441 507 40,000  Level FlightAware
07:22AM 35.9250 -20.2360 66° East 441 507 40,000  Level FlightAware
07:22AM 35.9500 -20.1660 66° East 441 507 40,000  Level FlightAware
07:23AM 35.9760 -20.0950 66° East 441 507 40,000  Level FlightAware
07:24AM 36.0010 -20.0250 66° East 441 507 40,000  Level FlightAware
07:24AM 36.0260 -19.9540 66° East 441 507 40,000  Level FlightAware
07:25AM 36.0520 -19.8840 65° Northeast 441 507 40,000  Level FlightAware
07:25AM 36.0770 -19.8130 66° East 441 507 40,000  Level FlightAware
07:26AM 36.1030 -19.7420 66° East 441 507 40,000  Level FlightAware
07:27AM 36.2090 -19.5130 60° Northeast 439 505 40,000  Level FlightAware
07:27AM 36.2390 -19.4410 63° Northeast 439 505 40,000  Level FlightAware
07:28AM 36.2690 -19.3730 61° Northeast 439 505 40,000  Level FlightAware
07:28AM 36.2980 -19.3050 62° Northeast 439 505 40,000  Level FlightAware
07:29AM 36.3270 -19.2370 62° Northeast 439 505 40,000  Level FlightAware
07:30AM 36.3560 -19.1690 62° Northeast 439 505 40,000  Level FlightAware
07:30AM 36.3850 -19.1010 62° Northeast 439 505 40,000  Level FlightAware
07:31AM 36.4140 -19.0320 62° Northeast 439 505 40,000  Level FlightAware
07:31AM 36.4440 -18.9620 62° Northeast 439 505 40,000  Level FlightAware
07:32AM 36.4740 -18.8940 61° Northeast 439 505 40,000  Level FlightAware
07:33AM 36.5030 -18.8260 62° Northeast 439 505 40,000  Level FlightAware
07:33AM 36.5320 -18.7580 62° Northeast 439 505 40,000  Level FlightAware
07:34AM 36.5610 -18.6890 62° Northeast 439 505 40,000  Level FlightAware
07:34AM 36.5900 -18.6210 62° Northeast 439 505 40,000  Level FlightAware
07:35AM 36.6190 -18.5530 62° Northeast 439 505 40,000  Level FlightAware
07:36AM 36.6490 -18.4840 62° Northeast 439 505 40,000  Level FlightAware
07:36AM 36.6870 -18.3950 62° Northeast 439 505 40,000  Level FlightAware
07:39AM 36.7818 -18.0861 69° East  Level FlightAware Approximate
07:40AM 36.8260 -17.9411 69° East  Level FlightAware Approximate
07:41AM 36.8700 -17.7959 69° East  Level FlightAware Approximate
07:42AM 36.9138 -17.6505 69° East  Level FlightAware Approximate
07:43AM 36.9574 -17.5049 69° East  Level FlightAware Approximate
07:44AM 37.0009 -17.3592 69° East  Level FlightAware Approximate
07:45AM 37.0442 -17.2134 70° East  Level FlightAware Approximate
07:46AM 37.0873 -17.0673 70° East  Level FlightAware Approximate
07:47AM 37.1302 -16.9211 70° East  Level FlightAware Approximate
07:48AM 37.1730 -16.7747 70° East  Level FlightAware Approximate
07:49AM 37.2155 -16.6282 70° East  Level FlightAware Approximate
07:50AM 37.2579 -16.4815 70° East  Level FlightAware Approximate
07:51AM 37.3001 -16.3346 70° East  Level FlightAware Approximate
07:52AM 37.3422 -16.1876 70° East  Level FlightAware Approximate
07:53AM 37.3840 -16.0404 70° East  Level FlightAware Approximate
07:54AM 37.4257 -15.8930 70° East  Level FlightAware Approximate
07:55AM 37.4671 -15.7455 70° East  Level FlightAware Approximate
07:56AM 37.5084 -15.5978 71° East  Level FlightAware Approximate
07:57AM 37.5495 -15.4499 71° East  Level FlightAware Approximate
07:58AM 37.5904 -15.3019 71° East  Level FlightAware Approximate
07:59AM 37.6312 -15.1537 71° East  Level FlightAware Approximate
08:00AM 37.6717 -15.0054 71° East  Level FlightAware Approximate
08:01AM 37.7121 -14.8569 71° East  Level FlightAware Approximate
08:02AM 37.7535 -14.7051 69° East  Level FlightAware Approximate
08:03AM 37.7977 -14.5582 69° East  Level FlightAware Approximate
08:04AM 37.8418 -14.4111 69° East  Level FlightAware Approximate
08:05AM 37.8856 -14.2638 69° East  Level FlightAware Approximate
08:06AM 37.9293 -14.1164 69° East  Level FlightAware Approximate
08:07AM 37.9728 -13.9688 69° East  Level FlightAware Approximate
08:08AM 38.0161 -13.8210 70° East  Level FlightAware Approximate
08:09AM 38.0592 -13.6730 70° East  Level FlightAware Approximate
08:10AM 38.1021 -13.5249 70° East  Level FlightAware Approximate
08:11AM 38.1449 -13.3766 70° East  Level FlightAware Approximate
08:12AM 38.1875 -13.2281 70° East  Level FlightAware Approximate
08:12AM 38.4200 -13.1600 70° East 440 506 40,000  Level FlightAware
08:12AM 38.4400 -13.0760 73° East 440 506 40,000  Level FlightAware
08:13AM 38.4700 -12.9500 73° East 441 507 40,000  Level FlightAware
08:14AM 38.4890 -12.8700 73° East 443 510 40,000  Level FlightAware
08:14AM 38.5100 -12.7780 74° East 444 511 40,000  Level FlightAware
08:15AM 38.5320 -12.6840 73° East 445 512 40,000  Level FlightAware
08:15AM 38.5520 -12.5970 74° East 446 513 40,000  Level FlightAware
08:16AM 38.5710 -12.5160 73° East 446 513 40,000  Level FlightAware
08:17AM 38.5930 -12.4200 74° East 447 514 40,000  Level FlightAware
08:17AM 38.6140 -12.3310 73° East 444 511 40,000  Level FlightAware
08:18AM 38.6320 -12.2510 74° East 442 509 40,000  Level FlightAware
08:18AM 38.6540 -12.1550 74° East 440 506 40,000  Level FlightAware
08:19AM 38.6730 -12.0710 74° East 440 506 40,000  Level FlightAware
08:20AM 38.6920 -11.9850 74° East 440 506 40,000  Level FlightAware
08:20AM 38.7130 -11.8940 73° East 439 505 40,000  Level FlightAware
08:21AM 38.7310 -11.8140 74° East 437 503 40,000  Level FlightAware
08:21AM 38.7510 -11.7240 74° East 435 501 40,000  Level FlightAware
08:22AM 38.7710 -11.6330 74° East 435 501 40,000  Level FlightAware
08:22AM 38.7900 -11.5480 74° East 435 501 40,000  Level FlightAware
08:23AM 38.8110 -11.4540 74° East 435 501 40,000 -360 Level FlightAware
08:24AM 38.8320 -11.3590 74° East 436 502 39,600 -840 Descending FlightAware
08:24AM 38.8530 -11.2610 75° East 435 501 39,000 -960 Descending FlightAware
08:25AM 38.8690 -11.1880 74° East 437 503 38,500 -1,020 Descending FlightAware
08:25AM 38.8890 -11.1000 74° East 439 505 37,900 -1,080 Descending FlightAware
08:26AM 38.9110 -10.9980 74° East 437 503 37,200 -960 Descending FlightAware
08:27AM 38.9280 -10.9170 75° East 439 505 36,700 -960 Descending FlightAware
08:27AM 38.9460 -10.8360 74° East 440 506 36,200 -1,080 Descending FlightAware
08:28AM 38.9670 -10.7370 75° East 439 505 35,500 -960 Descending FlightAware
08:28AM 38.9860 -10.6480 75° East 441 507 35,000 -960 Descending FlightAware
08:29AM 39.0010 -10.5750 75° East 445 512 34,500 -960 Descending FlightAware
08:30AM 39.0200 -10.4860 75° East 443 510 34,000 -420 Descending FlightAware
08:30AM 39.0420 -10.3820 75° East 440 506 34,000  Level FlightAware
08:31AM 39.0610 -10.2930 75° East 442 509 34,000  Level FlightAware
08:31AM 39.0770 -10.2160 75° East 440 506 34,000  Level FlightAware
08:32AM 39.0980 -10.1150 75° East 440 506 34,000  Level FlightAware
08:32AM 39.1140 -10.0380 75° East 440 506 34,000  Level FlightAware
08:33AM 39.1310 -9.9540 75° East 440 506 34,000  Level FlightAware
08:34AM 39.1530 -9.8490 75° East 440 506 34,000  Level FlightAware
08:34AM 39.1710 -9.7610 75° East 439 505 34,000  Level FlightAware
08:35AM 39.1860 -9.6860 76° East 440 506 34,000  Level FlightAware
08:35AM 39.2030 -9.5990 76° East 441 507 34,000  Level FlightAware
08:36AM 39.2220 -9.5050 75° East 442 509 34,000  Level FlightAware
08:37AM 39.2400 -9.4170 75° East 443 510 34,000  Level FlightAware
08:37AM 39.2570 -9.3300 76° East 444 511 34,000  Level FlightAware
08:38AM 39.2780 -9.2270 75° East 444 511 34,000  Level FlightAware
08:38AM 39.2960 -9.1370 75° East 443 510 34,000  Level FlightAware
08:39AM 39.3110 -9.0600 76° East 443 510 34,000  Level FlightAware
08:39AM 39.3280 -8.9740 76° East 442 509 34,000  Level FlightAware
08:40AM 39.3490 -8.8680 76° East 441 507 34,000  Level FlightAware
08:41AM 39.3630 -8.7940 76° East 440 506 34,000  Level FlightAware
08:41AM 39.3810 -8.7080 75° East 440 506 34,000  Level FlightAware
08:42AM 39.4010 -8.6000 76° East 442 509 34,000  Level FlightAware
08:43AM 39.4230 -8.4860 76° East 442 509 34,000  Level FlightAware
08:43AM 39.4390 -8.4040 76° East 442 509 34,000  Level FlightAware
08:44AM 39.4550 -8.3210 76° East 442 509 34,000  Level FlightAware
08:45AM 39.4750 -8.2120 77° East 440 506 34,000  Level FlightAware
08:45AM 39.4930 -8.1150 76° East 441 507 34,000  Level FlightAware
08:46AM 39.5140 -8.0050 76° East 442 509 34,000  Level FlightAware
08:46AM 39.5290 -7.9270 76° East 442 509 34,000 -540 Level FlightAware
08:47AM 39.5470 -7.8260 77° East 442 509 33,400 -1,080 Descending FlightAware
08:48AM 39.5650 -7.7320 76° East 443 510 32,800 -1,080 Descending FlightAware
08:48AM 39.5810 -7.6410 77° East 446 513 32,200 -720 Descending FlightAware
08:49AM 39.5970 -7.5550 76° East 443 510 32,000 -180 Descending FlightAware
08:49AM 39.6150 -7.4590 76° East 443 510 32,000  Level FlightAware
08:50AM 39.6310 -7.3700 77° East 441 507 32,000  Level FlightAware
08:50AM 39.6470 -7.2820 77° East 438 504 32,000  Level FlightAware
08:51AM 39.6640 -7.1840 77° East 438 504 32,000  Level FlightAware
08:52AM 39.6810 -7.0880 77° East 437 503 32,000  Level FlightAware
08:52AM 39.6950 -7.0110 77° East 434 499 32,000  Level FlightAware
08:53AM 39.7120 -6.9120 77° East 433 498 32,000  Level FlightAware
08:53AM 39.7280 -6.8250 77° East 432 497 32,000  Level FlightAware
08:54AM 39.7430 -6.7400 77° East 434 499 32,000  Level FlightAware
08:55AM 39.7580 -6.6510 78° East 437 503 32,000  Level FlightAware
08:55AM 39.7730 -6.5660 77° East 438 504 32,000  Level FlightAware
08:56AM 39.7900 -6.4660 77° East 437 503 32,000  Level FlightAware
08:56AM 39.8030 -6.3850 78° East 438 504 32,000  Level FlightAware
08:57AM 39.8110 -6.2890 84° East 426 490 32,000  Level FlightAware
08:58AM 39.8200 -6.1970 83° East 428 493 32,000  Level FlightAware
08:58AM 39.8270 -6.1140 84° East 428 493 32,000  Level FlightAware
08:59AM 39.8340 -6.0340 83° East 434 499 32,000  Level FlightAware
08:59AM 39.8440 -5.9250 83° East 437 503 32,000  Level FlightAware
09:00AM 39.8520 -5.8340 83° East 440 506 32,000  Level FlightAware
09:01AM 39.8610 -5.7210 84° East 447 514 32,000  Level FlightAware
09:01AM 39.8680 -5.6340 84° East 452 520 32,000 -180 Level FlightAware
09:02AM 39.8770 -5.5360 83° East 452 520 31,800 -960 Descending FlightAware
09:02AM 39.8840 -5.4490 84° East 451 519 30,900 -1,380 Descending FlightAware
09:03AM 39.8900 -5.3700 84° East 446 513 30,400 -1,020 Descending FlightAware
09:03AM 39.8990 -5.2560 84° East 440 506 29,700 -1,020 Descending FlightAware
09:04AM 39.9080 -5.1530 83° East 438 504 29,100 -1,440 Descending FlightAware
09:05AM 39.9150 -5.0580 84° East 439 505 27,900 -2,100 Descending FlightAware
09:05AM 39.9220 -4.9690 84° East 438 504 26,700 -2,040 Descending FlightAware
09:06AM 39.9290 -4.8820 84° East 434 499 25,600 -1,860 Descending FlightAware
09:06AM 39.9370 -4.7830 84° East 429 494 24,500 -1,500 Descending FlightAware
09:07AM 39.9490 -4.7360 72° East 412 474 24,200 -1,020 Descending FlightAware
09:07AM 39.9640 -4.7050 58° Northeast 407 468 23,900 -1,020 Descending FlightAware
09:07AM 39.9850 -4.6770 46° Northeast 394 453 23,700 -1,020 Descending FlightAware
09:08AM 40.0400 -4.6160 40° Northeast 404 465 23,000 -1,080 Descending FlightAware
09:09AM 40.0920 -4.5590 40° Northeast 398 458 22,400 -960 Descending FlightAware
09:09AM 40.1370 -4.5070 41° Northeast 384 442 21,900 -1,020 Descending FlightAware
09:10AM 40.1970 -4.4410 40° Northeast 392 451 21,100 -1,020 Descending FlightAware
09:10AM 40.2370 -4.3960 41° Northeast 375 432 20,700 -960 Descending FlightAware
09:11AM 40.2860 -4.3420 40° Northeast 360 414 20,000 -720 Descending FlightAware
09:12AM 40.3380 -4.2840 40° Northeast 351 404 19,700 -1,020 Descending FlightAware
09:12AM 40.3730 -4.2500 37° Northeast 339 390 18,900 -1,620 Descending FlightAware
09:12AM 40.4010 -4.2430 11° North 333 383 18,600 -1,020 Descending FlightAware
09:13AM 40.4550 -4.2340 North 327 376 18,000 -1,020 Descending FlightAware
09:13AM 40.4820 -4.2230 17° North 330 380 17,700 -1,020 Descending FlightAware
09:14AM 40.5260 -4.1740 40° Northeast 328 377 17,100 -1,080 Descending FlightAware
09:15AM 40.5640 -4.1340 39° Northeast 331 381 16,500 -1,080 Descending FlightAware
09:15AM 40.6070 -4.0870 40° Northeast 329 379 15,900 -960 Descending FlightAware
09:16AM 40.6480 -4.0420 40° Northeast 321 369 15,400 -1,080 Descending FlightAware
09:16AM 40.6870 -4.0010 39° Northeast 317 365 14,700 -1,320 Descending FlightAware
09:17AM 40.7280 -3.9560 40° Northeast 313 360 13,900 -1,260 Descending FlightAware
09:17AM 40.7660 -3.9150 39° Northeast 308 354 13,200 -960 Descending FlightAware
09:18AM 40.8050 -3.8720 40° Northeast 292 336 12,800 -540 Descending FlightAware
09:19AM 40.8370 -3.8370 40° Northeast 277 319 12,600 -600 Descending FlightAware
09:19AM 40.8750 -3.7950 40° Northeast 273 314 12,100 -900 Descending FlightAware
09:20AM 40.9050 -3.7620 40° Northeast 271 312 11,600 -1,080 Descending FlightAware
09:20AM 40.9410 -3.7230 39° Northeast 273 314 10,900 -720 Descending FlightAware
09:21AM 40.9740 -3.6880 39° Northeast 268 308 10,800 -600 Descending FlightAware
09:21AM 41.0010 -3.6570 41° Northeast 251 289 10,300 -1,020 Descending FlightAware
09:22AM 41.0070 -3.6410 64° Northeast 249 287 10,100 -1,200 Descending FlightAware
09:22AM 41.0080 -3.6280 84° East 248 285 9,900 -1,140 Descending FlightAware
09:22AM 41.0060 -3.6170 104° East 247 284 9,800 -1,200 Descending FlightAware
09:22AM 41.0050 -3.6140 114° Southeast 247 284 9,700 -1,500 Descending FlightAware
09:22AM 40.9990 -3.6020 124° Southeast 245 282 9,500 -1,020 Descending FlightAware
09:22AM 40.9910 -3.5950 147° Southeast 243 280 9,400 -900 Descending FlightAware
09:22AM 40.9790 -3.5860 150° Southeast 242 278 9,200 -1,200 Descending FlightAware
09:23AM 40.9720 -3.5810 152° Southeast 243 280 9,000 -1,080 Descending FlightAware
09:23AM 40.9630 -3.5790 170° South 243 280 8,900 -780 Descending FlightAware
09:23AM 40.9530 -3.5770 171° South 242 278 8,800 -840 Descending FlightAware
09:23AM 40.9370 -3.5770 180° South 242 278 8,600 -900 Descending FlightAware
09:24AM 40.8900 -3.5770 180° South 238 274 8,000 -780 Descending FlightAware
09:24AM 40.8710 -3.5770 180° South 231 266 7,900 -360 Descending FlightAware
09:24AM 40.8530 -3.5770 180° South 232 267 7,800 -180 Descending FlightAware
09:25AM 40.8310 -3.5770 180° South 226 260 7,800 -480 Level FlightAware
09:25AM 40.8110 -3.5770 180° South 219 252 7,500 -1,320 Descending FlightAware
09:26AM 40.7730 -3.5760 179° South 227 261 6,600 -1,500 Descending FlightAware
09:26AM 40.7550 -3.5760 180° South 223 257 6,200 -1,260 Descending FlightAware
09:26AM 40.7250 -3.5760 180° South 205 236 5,600 -1,140 Descending FlightAware
09:27AM 40.7000 -3.5760 180° South 197 227 5,100 -1,080 Descending FlightAware
09:27AM 40.6880 -3.5760 180° South 190 219 4,900 -900 Descending FlightAware
09:28AM 40.6650 -3.5760 180° South 190 219 4,500 -1,020 Descending FlightAware
09:28AM 40.6410 -3.5760 180° South 184 212 4,000 -1,080 Descending FlightAware
09:28AM 40.6250 -3.5750 177° South 185 213 3,700 -960 Descending FlightAware
09:29AM 40.5990 -3.5750 180° South 160 184 3,200 -900 Descending FlightAware
09:29AM 40.5820 -3.5750 180° South 146 168 2,900 -660 Descending FlightAware
09:30AM 40.5670 -3.5750 180° South 137 158 2,700 -660 Descending FlightAware
09:30AM 40.5570 -3.5750 180° South 138 159 2,500 -840 Descending FlightAware
09:30AM 40.5440 -3.5750 180° South 141 162 2,200 -780 Descending FlightAware
09:31AM 40.5250 -3.5750 180° South 140 161 1,900 -660 Descending FlightAware
09:31AM 40.5120 -3.5750 180° South 100 115 -4,560 Descending FlightAware
09:32AM 40.5020 -3.5750 180° South 100 115  Level FlightAware